Time;durP1;ratioP1;P1;durP2;ratioP2;P2;SDS_P1;SDS_P2;PMS_P1;PMS_P2;Temp;Humidity;BMP_temperature;BMP_pressure;BME280_temperature;BME280_humidity;BME280_pressure;Samples;Min_cycle;Max_cycle;Signal;HPM_P1;HPM_P2
2023/09/17 00:00:19;;;;;;;9.43;8.43;;;20.50;99.90;;;;;;5010687;28;20191;-73
2023/09/17 00:02:45;;;;;;;12.93;9.60;;;20.40;99.90;;;;;;5009104;28;20204;-74
2023/09/17 00:05:11;;;;;;;13.32;9.63;;;20.30;99.90;;;;;;5015794;28;20648;-74
2023/09/17 00:07:36;;;;;;;11.52;9.77;;;19.90;99.90;;;;;;5020354;28;20180;-74
2023/09/17 00:10:03;;;;;;;12.40;9.17;;;19.60;99.90;;;;;;5014509;28;20683;-75
2023/09/17 00:12:28;;;;;;;12.18;10.32;;;19.50;99.90;;;;;;5014413;28;20196;-75
2023/09/17 00:14:54;;;;;;;14.82;10.57;;;19.50;99.90;;;;;;5014699;28;20176;-75
2023/09/17 00:17:20;;;;;;;19.03;12.23;;;19.50;99.90;;;;;;5014231;28;20232;-75
2023/09/17 00:19:46;;;;;;;17.03;12.50;;;19.40;99.90;;;;;;5014144;28;20180;-75
2023/09/17 00:22:14;;;;;;;14.57;12.87;;;19.50;99.90;;;;;;5014216;28;20676;-75
2023/09/17 00:24:40;;;;;;;21.27;14.23;;;19.50;99.90;;;;;;5014450;28;20552;-75
2023/09/17 00:27:06;;;;;;;20.00;14.37;;;19.60;99.90;;;;;;5013195;28;20326;-75
2023/09/17 00:29:31;;;;;;;23.20;13.97;;;19.60;99.90;;;;;;5012894;28;20271;-75
2023/09/17 00:31:57;;;;;;;20.05;15.20;;;19.70;99.90;;;;;;5014325;28;20206;-75
2023/09/17 00:34:23;;;;;;;22.10;14.40;;;19.70;99.90;;;;;;5014204;28;20185;-75
2023/09/17 00:36:48;;;;;;;38.93;16.97;;;19.70;99.90;;;;;;5014067;28;20307;-75
2023/09/17 00:39:14;;;;;;;20.63;15.07;;;19.80;99.90;;;;;;5012581;28;20199;-75
2023/09/17 00:41:39;;;;;;;24.07;16.10;;;19.70;99.90;;;;;;5014197;28;20271;-75
2023/09/17 00:44:05;;;;;;;35.60;16.97;;;19.80;99.90;;;;;;5014300;28;20604;-75
2023/09/17 00:46:31;;;;;;;23.10;16.17;;;19.80;99.90;;;;;;5013629;28;20184;-75
2023/09/17 00:48:58;;;;;;;79.33;19.40;;;19.90;99.90;;;;;;5013859;28;20259;-75
2023/09/17 00:51:25;;;;;;;31.10;16.90;;;19.90;99.90;;;;;;5013480;28;20962;-75
2023/09/17 00:53:51;;;;;;;117.50;23.00;;;19.90;99.90;;;;;;5013839;28;20192;-75
2023/09/17 00:56:17;;;;;;;35.90;18.23;;;19.90;99.90;;;;;;5013610;28;20204;-75
2023/09/17 00:58:44;;;;;;;30.57;18.07;;;19.90;99.90;;;;;;5012939;28;20608;-74
2023/09/17 01:01:12;;;;;;;28.75;17.90;;;19.90;99.90;;;;;;5013414;28;20617;-75
2023/09/17 01:03:38;;;;;;;34.30;19.40;;;19.80;99.90;;;;;;5013898;28;20514;-75
2023/09/17 01:06:04;;;;;;;33.10;20.03;;;19.70;99.90;;;;;;5013860;28;20206;-75
2023/09/17 01:08:31;;;;;;;30.50;18.38;;;19.50;99.90;;;;;;5005209;28;20239;-75
2023/09/17 01:10:58;;;;;;;38.63;19.87;;;19.50;99.90;;;;;;5020729;28;20234;-75
2023/09/17 01:13:24;;;;;;;37.57;19.50;;;19.40;99.90;;;;;;5014285;28;20179;-75
2023/09/17 01:15:52;;;;;;;39.43;18.70;;;19.50;99.90;;;;;;5013384;28;20266;-75
2023/09/17 01:18:21;;;;;;;40.23;20.07;;;19.50;99.90;;;;;;5013342;28;20547;-75
2023/09/17 01:20:55;;;;;;;36.53;19.67;;;19.50;99.90;;;;;;5013191;28;20199;-75
2023/09/17 01:23:52;;;;;;;26.60;19.00;;;19.40;99.90;;;;;;5013162;28;20655;-75
2023/09/17 01:26:27;;;;;;;29.30;18.03;;;19.40;99.90;;;;;;5004399;28;20207;-75
2023/09/17 01:28:56;;;;;;;28.47;19.80;;;19.40;99.90;;;;;;5013040;28;20183;-75
2023/09/17 01:31:23;;;;;;;27.47;18.20;;;19.50;99.90;;;;;;5012995;28;20238;-75
2023/09/17 01:33:50;;;;;;;29.07;18.93;;;19.50;99.90;;;;;;5013269;28;20172;-75
2023/09/17 01:36:23;;;;;;;28.90;20.00;;;19.50;99.90;;;;;;5012900;28;20215;-75
2023/09/17 01:38:54;;;;;;;29.93;18.00;;;19.50;99.90;;;;;;5012771;28;20180;-75
2023/09/17 01:41:21;;;;;;;26.38;19.27;;;19.60;99.90;;;;;;5012199;28;20668;-75
2023/09/17 01:43:47;;;;;;;40.80;19.73;;;19.60;99.90;;;;;;5013152;28;20589;-75
2023/09/17 01:46:16;;;;;;;30.10;20.37;;;19.60;99.90;;;;;;5013736;28;20192;-75
2023/09/17 01:48:44;;;;;;;31.73;19.70;;;19.70;99.90;;;;;;5019362;28;20184;-75
2023/09/17 01:51:11;;;;;;;26.83;18.13;;;19.70;99.90;;;;;;5013112;28;20570;-75
2023/09/17 01:53:37;;;;;;;31.30;19.53;;;19.60;99.90;;;;;;5019957;28;20195;-75
2023/09/17 01:56:04;;;;;;;30.77;18.60;;;19.60;99.90;;;;;;5012777;28;20295;-75
2023/09/17 01:58:30;;;;;;;31.43;20.07;;;19.70;99.90;;;;;;5012490;28;20226;-75
2023/09/17 02:00:56;;;;;;;37.90;20.57;;;19.70;99.90;;;;;;5012568;28;20180;-75
2023/09/17 02:03:22;;;;;;;44.70;21.33;;;19.70;99.90;;;;;;5012693;28;20242;-76
2023/09/17 02:05:48;;;;;;;34.10;21.17;;;19.70;99.90;;;;;;5012830;28;20184;-75
2023/09/17 02:08:14;;;;;;;35.13;20.30;;;19.70;99.90;;;;;;5012391;28;20259;-75
2023/09/17 02:10:40;;;;;;;37.53;22.00;;;19.60;99.90;;;;;;5018903;28;20192;-76
2023/09/17 02:13:06;;;;;;;31.77;20.50;;;19.50;99.90;;;;;;5019248;28;20183;-75
2023/09/17 02:15:32;;;;;;;32.03;21.33;;;19.50;99.90;;;;;;5012455;28;20234;-76
2023/09/17 02:17:58;;;;;;;36.50;21.13;;;19.50;99.90;;;;;;5012685;28;20207;-76
2023/09/17 02:20:24;;;;;;;29.23;21.03;;;19.50;99.90;;;;;;5012020;28;20180;-75
2023/09/17 02:22:50;;;;;;;41.43;22.07;;;19.60;99.90;;;;;;5011288;28;20714;-75
2023/09/17 02:25:16;;;;;;;34.07;21.23;;;19.50;99.90;;;;;;5011199;28;20176;-75
2023/09/17 02:27:42;;;;;;;33.80;22.02;;;19.50;99.90;;;;;;5012309;28;20254;-75
2023/09/17 02:30:08;;;;;;;38.33;23.17;;;19.60;99.90;;;;;;5012123;28;20207;-75
2023/09/17 02:32:34;;;;;;;35.08;21.63;;;19.60;99.90;;;;;;5012195;28;20199;-75
2023/09/17 02:35:00;;;;;;;32.77;21.87;;;19.60;99.90;;;;;;5011015;28;20180;-75
2023/09/17 02:37:26;;;;;;;37.23;23.17;;;19.60;99.90;;;;;;5014233;28;20180;-75
2023/09/17 02:39:51;;;;;;;30.77;21.37;;;19.60;99.90;;;;;;5016651;28;20270;-75
2023/09/17 02:42:17;;;;;;;38.23;23.57;;;19.60;99.90;;;;;;5011827;28;20342;-75
2023/09/17 02:44:43;;;;;;;37.00;21.87;;;19.70;99.90;;;;;;5010701;28;20180;-76
2023/09/17 02:47:09;;;;;;;38.17;23.47;;;19.60;99.90;;;;;;5012316;28;20230;-75
2023/09/17 02:49:35;;;;;;;34.25;22.10;;;19.60;99.90;;;;;;5011720;28;20180;-75
2023/09/17 02:52:01;;;;;;;37.30;22.93;;;19.60;99.90;;;;;;5011808;28;20207;-75
2023/09/17 02:54:27;;;;;;;39.30;23.17;;;19.60;99.90;;;;;;5011954;28;20200;-75
2023/09/17 02:56:53;;;;;;;37.25;22.83;;;19.60;99.90;;;;;;5012138;28;20199;-75
2023/09/17 02:59:19;;;;;;;41.53;24.27;;;19.60;99.90;;;;;;5010594;28;20180;-75
2023/09/17 03:01:45;;;;;;;41.20;24.53;;;19.60;99.90;;;;;;5011854;28;20191;-75
2023/09/17 03:04:11;;;;;;;42.60;25.75;;;19.50;99.90;;;;;;5012330;28;20199;-75
2023/09/17 03:06:37;;;;;;;46.67;25.17;;;19.50;99.90;;;;;;5011498;28;20648;-75
2023/09/17 03:09:10;;;;;;;44.63;25.77;;;19.50;99.90;;;;;;5011506;28;20184;-75
2023/09/17 03:11:35;;;;;;;43.17;25.27;;;19.50;99.90;;;;;;5011686;28;20199;-75
2023/09/17 03:14:01;;;;;;;41.60;24.97;;;19.40;99.90;;;;;;5011677;28;20246;-75
2023/09/17 03:16:27;;;;;;;54.57;27.23;;;19.40;99.90;;;;;;5011518;28;20208;-75
2023/09/17 03:18:52;;;;;;;46.83;25.73;;;19.40;99.90;;;;;;5011359;28;20669;-75
2023/09/17 03:21:18;;;;;;;46.37;27.07;;;19.40;99.90;;;;;;5011543;28;20270;-77
2023/09/17 03:23:44;;;;;;;46.20;25.67;;;19.40;99.90;;;;;;5010316;28;20542;-75
2023/09/17 03:26:10;;;;;;;51.23;26.77;;;19.40;99.90;;;;;;5011709;28;20215;-75
2023/09/17 03:28:36;;;;;;;43.73;25.20;;;19.50;99.90;;;;;;5011343;28;20652;-75
2023/09/17 03:31:04;;;;;;;50.07;26.60;;;19.50;99.90;;;;;;5011012;28;20227;-75
2023/09/17 03:33:30;;;;;;;45.80;24.97;;;19.60;99.90;;;;;;5011678;28;20735;-75
2023/09/17 03:35:57;;;;;;;52.73;25.10;;;19.60;99.90;;;;;;5011485;28;20562;-75
2023/09/17 03:38:23;;;;;;;49.67;26.13;;;19.60;99.90;;;;;;5011222;28;20653;-75
2023/09/17 03:40:48;;;;;;;64.87;25.60;;;19.50;99.90;;;;;;5009955;28;20223;-75
2023/09/17 03:43:14;;;;;;;65.40;26.30;;;19.50;99.90;;;;;;5011349;28;20263;-75
2023/09/17 03:45:41;;;;;;;45.57;25.27;;;19.50;99.90;;;;;;5009973;28;20183;-75
2023/09/17 03:48:06;;;;;;;44.57;24.50;;;19.50;99.90;;;;;;5011487;28;20179;-75
2023/09/17 03:50:32;;;;;;;55.43;25.47;;;19.50;99.90;;;;;;5010689;28;20180;-75
2023/09/17 03:53:02;;;;;;;76.60;27.40;;;19.50;99.90;;;;;;5011215;28;20791;-75
2023/09/17 03:55:28;;;;;;;52.43;27.60;;;19.50;99.90;;;;;;5011035;28;20212;-75
2023/09/17 03:57:55;;;;;;;66.63;27.40;;;19.50;99.90;;;;;;5011401;28;20572;-75
2023/09/17 04:00:23;;;;;;;54.57;26.47;;;19.50;99.90;;;;;;5011130;28;20175;-76
2023/09/17 04:02:49;;;;;;;56.80;27.87;;;19.50;99.90;;;;;;5011087;28;20184;-75
2023/09/17 04:05:16;;;;;;;61.13;28.50;;;19.50;99.90;;;;;;5010900;28;20261;-75
2023/09/17 04:07:44;;;;;;;49.43;27.80;;;19.50;99.90;;;;;;5011188;28;20172;-75
2023/09/17 04:10:10;;;;;;;55.47;29.27;;;19.40;99.90;;;;;;5010986;28;20176;-75
2023/09/17 04:12:37;;;;;;;50.47;29.37;;;19.40;99.90;;;;;;5010584;28;20230;-75
2023/09/17 04:15:28;;;;;;;56.37;28.30;;;19.40;99.90;;;;;;5011129;28;20611;-75
2023/09/17 04:17:53;;;;;;;57.70;28.23;;;19.40;99.90;;;;;;5010893;28;20192;-75
2023/09/17 04:20:19;;;;;;;56.53;27.98;;;19.50;99.90;;;;;;5010862;28;20172;-75
2023/09/17 04:22:49;;;;;;;48.37;26.53;;;19.50;99.90;;;;;;5010782;28;20196;-75
2023/09/17 04:25:16;;;;;;;60.13;27.13;;;19.50;99.90;;;;;;5011193;28;20611;-75
2023/09/17 04:27:44;;;;;;;53.60;27.03;;;19.50;99.90;;;;;;5010633;28;20168;-75
2023/09/17 04:30:11;;;;;;;59.27;26.63;;;19.60;99.90;;;;;;5011031;28;20180;-75
2023/09/17 04:32:38;;;;;;;58.53;25.73;;;19.50;99.90;;;;;;5012225;28;20204;-75
2023/09/17 04:35:11;;;;;;;50.30;26.80;;;19.50;99.90;;;;;;5014546;28;20208;-74
2023/09/17 04:37:40;;;;;;;73.60;26.57;;;19.40;99.90;;;;;;5022539;28;20187;-74
2023/09/17 04:40:08;;;;;;;53.10;27.13;;;19.40;99.90;;;;;;5014142;28;20525;-75
2023/09/17 04:42:35;;;;;;;62.93;27.07;;;19.40;99.90;;;;;;5014132;28;20228;-74
2023/09/17 04:45:05;;;;;;;47.67;26.27;;;19.40;99.90;;;;;;5014331;28;21138;-74
2023/09/17 04:47:36;;;;;;;65.47;26.37;;;19.30;99.90;;;;;;5014158;28;20180;-75
2023/09/17 04:50:03;;;;;;;66.57;26.60;;;19.30;99.90;;;;;;5013898;28;20233;-75
2023/09/17 04:52:29;;;;;;;71.00;29.80;;;19.30;99.90;;;;;;5014111;28;20211;-75
2023/09/17 04:54:54;;;;;;;54.07;28.10;;;19.30;99.90;;;;;;5013960;28;20188;-75
2023/09/17 04:57:20;;;;;;;74.63;27.57;;;19.20;99.90;;;;;;5013959;28;20200;-75
2023/09/17 04:59:46;;;;;;;66.70;27.93;;;19.20;99.90;;;;;;5013889;28;20285;-75
2023/09/17 05:02:14;;;;;;;55.50;28.93;;;19.10;99.90;;;;;;5014095;28;20569;-75
2023/09/17 05:04:40;;;;;;;56.07;27.27;;;19.00;99.90;;;;;;5013809;28;20234;-75
2023/09/17 05:07:05;;;;;;;96.67;29.83;;;19.00;99.90;;;;;;5014039;28;20179;-75
2023/09/17 05:09:32;;;;;;;67.30;29.40;;;19.00;99.90;;;;;;5013633;28;20246;-75
2023/09/17 05:11:58;;;;;;;68.57;29.87;;;18.90;99.90;;;;;;5013800;28;20196;-76
2023/09/17 05:14:23;;;;;;;71.57;29.93;;;18.80;99.90;;;;;;5014021;28;20585;-75
2023/09/17 05:16:49;;;;;;;76.23;30.93;;;18.90;99.90;;;;;;5013650;28;20287;-75
2023/09/17 05:19:15;;;;;;;106.13;29.00;;;18.80;99.90;;;;;;5013289;28;20188;-75
2023/09/17 05:21:40;;;;;;;66.93;28.63;;;18.80;99.90;;;;;;5013733;28;20424;-74
2023/09/17 05:24:06;;;;;;;84.00;29.83;;;18.90;99.90;;;;;;5012442;28;20538;-74
2023/09/17 05:26:32;;;;;;;66.77;29.20;;;18.80;99.90;;;;;;5013359;28;20537;-74
2023/09/17 05:28:57;;;;;;;69.47;29.50;;;18.80;99.90;;;;;;5013251;28;20211;-74
2023/09/17 05:31:23;;;;;;;74.97;31.33;;;18.90;99.90;;;;;;5011606;28;20195;-74
2023/09/17 05:33:49;;;;;;;74.67;31.90;;;19.00;99.90;;;;;;5011860;28;20276;-74
2023/09/17 05:36:15;;;;;;;86.60;33.60;;;19.00;99.90;;;;;;5013428;28;20216;-74
2023/09/17 05:38:41;;;;;;;81.03;34.50;;;19.10;99.90;;;;;;5013031;28;20793;-74
2023/09/17 05:41:07;;;;;;;79.20;33.73;;;19.10;99.90;;;;;;5013193;28;20200;-74
2023/09/17 05:43:33;;;;;;;80.00;34.10;;;19.20;99.90;;;;;;5011829;28;20302;-75
2023/09/17 05:45:59;;;;;;;83.20;35.53;;;19.20;99.90;;;;;;5011649;28;20275;-75
2023/09/17 05:48:25;;;;;;;71.67;33.83;;;19.20;99.90;;;;;;5012900;28;20183;-75
2023/09/17 05:50:52;;;;;;;83.77;36.10;;;19.20;99.90;;;;;;5011386;28;20263;-75
2023/09/17 05:53:18;;;;;;;77.57;34.27;;;19.20;99.90;;;;;;5012823;28;20588;-75
2023/09/17 05:55:44;;;;;;;75.30;34.83;;;19.30;99.90;;;;;;5012877;28;20196;-76
2023/09/17 05:58:09;;;;;;;72.47;34.27;;;19.30;99.90;;;;;;5012735;28;20674;-75
2023/09/17 06:00:35;;;;;;;70.63;34.13;;;19.30;99.90;;;;;;5011208;28;20238;-75
2023/09/17 06:03:01;;;;;;;76.17;33.67;;;19.30;99.90;;;;;;5012560;28;20196;-75
2023/09/17 06:05:26;;;;;;;65.33;31.97;;;19.30;99.90;;;;;;5012248;28;20211;-75
2023/09/17 06:07:54;;;;;;;60.30;31.20;;;19.40;99.90;;;;;;5017003;28;20237;-76
2023/09/17 06:10:20;;;;;;;55.97;31.33;;;19.30;99.90;;;;;;5015908;28;20182;-75
2023/09/17 06:12:46;;;;;;;56.33;30.40;;;19.30;99.90;;;;;;5015603;28;20199;-77
2023/09/17 06:15:12;;;;;;;53.40;31.73;;;19.40;99.90;;;;;;5017166;28;20176;-75
2023/09/17 06:17:37;;;;;;;54.67;31.80;;;19.40;99.90;;;;;;5012129;28;20183;-74
2023/09/17 06:20:03;;;;;;;54.73;31.73;;;19.40;99.90;;;;;;5011010;28;20208;-74
2023/09/17 06:22:29;;;;;;;53.90;30.43;;;19.50;99.90;;;;;;5011850;28;20200;-74
2023/09/17 06:24:55;;;;;;;48.77;29.53;;;19.50;99.90;;;;;;5012141;28;20659;-75
2023/09/17 06:27:21;;;;;;;53.70;29.63;;;19.50;99.90;;;;;;5012101;28;20666;-75
2023/09/17 06:29:46;;;;;;;50.33;30.50;;;19.50;99.90;;;;;;5019994;28;20711;-76
2023/09/17 06:32:12;;;;;;;47.43;29.47;;;19.50;99.90;;;;;;5012093;28;20204;-75
2023/09/17 06:34:38;;;;;;;49.90;29.67;;;19.50;99.90;;;;;;5011947;28;20262;-74
2023/09/17 06:37:04;;;;;;;52.33;30.13;;;19.60;99.90;;;;;;5011778;28;20306;-75
2023/09/17 06:39:30;;;;;;;44.80;30.10;;;19.80;99.90;;;;;;5011918;28;20176;-75
2023/09/17 06:41:55;;;;;;;46.17;29.10;;;20.00;99.90;;;;;;5011642;28;20210;-75
2023/09/17 06:44:23;;;;;;;46.43;26.63;;;20.20;99.90;;;;;;5012025;28;20254;-74
2023/09/17 06:46:48;;;;;;;39.33;24.05;;;20.50;99.90;;;;;;5011794;28;20585;-75
2023/09/17 06:49:14;;;;;;;33.45;22.95;;;20.60;99.90;;;;;;5018553;28;20175;-75
2023/09/17 06:51:40;;;;;;;28.60;21.33;;;20.90;99.90;;;;;;5012681;28;20203;-79
2023/09/17 06:54:05;;;;;;;24.40;20.35;;;21.10;99.90;;;;;;5011182;28;20199;-75
2023/09/17 06:56:31;;;;;;;18.85;15.27;;;21.30;99.90;;;;;;5010937;28;20218;-76
2023/09/17 06:58:57;;;;;;;16.20;14.38;;;21.50;99.90;;;;;;5011380;28;20702;-76
2023/09/17 07:01:23;;;;;;;15.95;14.45;;;21.70;99.90;;;;;;5011774;28;20215;-76
2023/09/17 07:03:49;;;;;;;15.57;12.55;;;21.90;99.90;;;;;;5011498;28;20176;-75
2023/09/17 07:06:16;;;;;;;12.75;11.45;;;22.10;99.90;;;;;;5011769;28;20551;-75
2023/09/17 07:08:41;;;;;;;11.45;10.25;;;22.40;99.90;;;;;;5011112;28;20295;-75
2023/09/17 07:11:07;;;;;;;11.57;9.45;;;22.60;99.90;;;;;;5010229;28;20295;-74
2023/09/17 07:13:32;;;;;;;10.60;9.57;;;22.90;99.90;;;;;;5011285;28;20233;-75
2023/09/17 07:15:58;;;;;;;11.45;9.85;;;23.20;99.90;;;;;;5010065;28;20274;-74
2023/09/17 07:18:26;;;;;;;9.93;9.00;;;23.30;99.90;;;;;;5019473;28;20207;-74
2023/09/17 07:20:51;;;;;;;9.20;8.32;;;23.60;99.90;;;;;;5010842;28;20256;-76
2023/09/17 07:23:17;;;;;;;8.30;7.47;;;23.80;99.90;;;;;;5011057;28;20263;-74
2023/09/17 07:25:45;;;;;;;7.88;7.07;;;24.20;99.90;;;;;;5011255;28;20662;-74
2023/09/17 07:28:11;;;;;;;8.40;7.57;;;24.70;99.90;;;;;;5011618;28;20229;-76
2023/09/17 07:30:37;;;;;;;7.90;7.30;;;25.20;99.90;;;;;;5010795;28;20192;-74
2023/09/17 07:33:04;;;;;;;9.27;6.55;;;25.60;99.90;;;;;;5011000;28;20176;-74
2023/09/17 07:35:31;;;;;;;7.63;5.93;;;25.90;99.90;;;;;;5012546;28;20179;-74
2023/09/17 07:37:57;;;;;;;8.57;7.85;;;26.20;99.90;;;;;;5010918;28;20259;-74
2023/09/17 07:40:23;;;;;;;6.75;6.15;;;26.50;99.90;;;;;;5010937;28;20322;-74
2023/09/17 07:42:48;;;;;;;6.72;5.75;;;26.80;99.90;;;;;;5010785;28;20219;-74
2023/09/17 07:45:14;;;;;;;7.82;5.22;;;27.00;99.90;;;;;;5011171;28;20192;-75
2023/09/17 07:47:40;;;;;;;6.07;4.80;;;27.20;1.00;;;;;;5011015;28;20172;-75
2023/09/17 07:50:06;;;;;;;5.75;4.65;;;27.20;1.00;;;;;;5009640;28;20271;-74
2023/09/17 07:52:32;;;;;;;5.97;4.50;;;27.30;1.00;;;;;;5011080;28;20211;-73
2023/09/17 07:54:58;;;;;;;5.85;5.25;;;27.40;1.00;;;;;;5011118;28;20191;-74
2023/09/17 07:57:24;;;;;;;4.72;4.07;;;27.70;1.00;;;;;;5011185;28;20702;-74
2023/09/17 07:59:50;;;;;;;6.22;5.72;;;28.00;1.00;;;;;;5010733;28;20219;-72
2023/09/17 08:02:15;;;;;;;4.55;4.15;;;28.30;1.00;;;;;;5011137;28;20271;-71
2023/09/17 08:04:41;;;;;;;4.60;4.22;;;28.50;1.00;;;;;;5010620;28;20172;-77
2023/09/17 08:07:07;;;;;;;4.80;4.40;;;28.40;1.00;;;;;;5011581;28;20675;-74
2023/09/17 08:09:33;;;;;;;4.35;3.95;;;28.50;99.90;;;;;;5014466;28;20179;-74
2023/09/17 08:11:59;;;;;;;7.13;4.38;;;28.60;1.00;;;;;;5014682;28;20203;-75
2023/09/17 08:14:25;;;;;;;3.88;3.58;;;28.60;1.00;;;;;;5014838;28;20207;-73
2023/09/17 08:16:51;;;;;;;6.10;5.50;;;28.70;1.00;;;;;;5014115;28;20643;-74
2023/09/17 08:19:17;;;;;;;5.35;4.85;;;28.80;1.00;;;;;;5022677;28;20592;-73
2023/09/17 08:21:43;;;;;;;7.40;6.90;;;28.60;1.00;;;;;;5014346;28;20196;-75
2023/09/17 08:24:10;;;;;;;6.43;5.60;;;28.60;1.00;;;;;;5014511;28;20226;-74
2023/09/17 08:26:35;;;;;;;6.47;4.65;;;28.80;99.90;;;;;;5014270;28;20180;-74
2023/09/17 08:29:01;;;;;;;5.80;4.82;;;28.90;1.00;;;;;;5013866;28;20609;-74
2023/09/17 08:31:28;;;;;;;4.55;4.15;;;28.90;1.00;;;;;;5013874;28;20266;-73
2023/09/17 08:33:54;;;;;;;5.30;3.47;;;28.90;15.30;;;;;;5012929;28;20176;-74
2023/09/17 08:36:21;;;;;;;4.32;3.53;;;28.90;1.00;;;;;;5013835;28;20294;-74
2023/09/17 08:38:49;;;;;;;5.00;4.13;;;29.00;1.00;;;;;;5011791;28;20323;-72
2023/09/17 08:41:18;;;;;;;5.55;3.50;;;29.10;1.00;;;;;;5013323;28;20600;-73
2023/09/17 08:43:46;;;;;;;3.50;3.20;;;29.20;1.00;;;;;;5014107;28;20220;-73
2023/09/17 08:46:12;;;;;;;3.83;3.20;;;29.40;1.00;;;;;;5014062;28;20184;-76
2023/09/17 08:48:38;;;;;;;5.25;3.78;;;29.60;1.00;;;;;;5013872;28;20190;-74
2023/09/17 08:51:05;;;;;;;4.47;3.65;;;29.60;1.00;;;;;;5013647;28;20271;-73
2023/09/17 08:53:38;;;;;;;3.55;3.25;;;29.80;1.00;;;;;;5013470;28;20218;-75
2023/09/17 08:56:06;;;;;;;3.67;3.28;;;29.90;31.70;;;;;;5013288;28;20231;-74
2023/09/17 08:58:38;;;;;;;5.75;3.30;;;29.80;99.90;;;;;;5013510;28;20695;-74
2023/09/17 09:01:07;;;;;;;5.65;3.78;;;29.80;99.90;;;;;;5013605;28;20196;-74
2023/09/17 09:03:35;;;;;;;4.80;3.42;;;29.50;99.90;;;;;;5013635;28;20176;-74
2023/09/17 09:06:03;;;;;;;4.28;3.42;;;29.70;99.90;;;;;;5013966;28;20176;-73
2023/09/17 09:08:30;;;;;;;3.90;3.60;;;29.80;99.90;;;;;;5013617;28;20200;-74
2023/09/17 09:10:56;;;;;;;4.53;4.13;;;29.80;99.90;;;;;;5005086;28;20715;-74
2023/09/17 09:13:22;;;;;;;8.60;5.00;;;29.90;99.90;;;;;;5013502;28;20263;-72
2023/09/17 09:15:48;;;;;;;4.97;4.53;;;30.00;99.90;;;;;;5013361;28;20204;-73
2023/09/17 09:18:14;;;;;;;4.55;4.20;;;30.10;99.90;;;;;;5013220;28;20188;-73
2023/09/17 09:20:40;;;;;;;4.47;4.15;;;29.90;99.90;;;;;;5012816;28;20176;-73
2023/09/17 09:23:07;;;;;;;3.70;3.40;;;29.80;99.90;;;;;;5013333;28;20250;-71
2023/09/17 09:25:34;;;;;;;4.00;3.53;;;29.60;1.00;;;;;;5012932;28;20653;-74
2023/09/17 09:28:03;;;;;;;5.88;4.07;;;29.50;1.00;;;;;;5012434;28;20192;-72
2023/09/17 09:30:29;;;;;;;4.30;3.85;;;29.30;1.00;;;;;;5012842;28;20557;-72
2023/09/17 09:32:55;;;;;;;4.45;3.78;;;29.20;1.00;;;;;;5012837;28;20199;-70
2023/09/17 09:35:21;;;;;;;3.78;3.47;;;29.00;1.00;;;;;;5012623;28;20176;-71
2023/09/17 09:37:48;;;;;;;4.28;3.88;;;28.80;1.00;;;;;;5012676;28;20194;-72
2023/09/17 09:40:14;;;;;;;5.78;3.80;;;28.80;1.00;;;;;;5012740;28;20172;-71
2023/09/17 09:42:42;;;;;;;5.15;3.92;;;28.70;1.00;;;;;;5012378;28;20279;-72
2023/09/17 09:45:16;;;;;;;4.20;3.55;;;28.80;1.00;;;;;;5012293;28;20184;-73
2023/09/17 09:47:51;;;;;;;5.00;3.90;;;28.80;1.00;;;;;;5012341;28;20183;-72
2023/09/17 09:50:25;;;;;;;4.22;3.92;;;28.80;1.00;;;;;;5011990;28;20187;-74
2023/09/17 09:52:51;;;;;;;4.25;3.90;;;28.80;1.00;;;;;;5012259;28;20727;-74
2023/09/17 09:55:17;;;;;;;4.30;3.63;;;28.80;1.00;;;;;;5012326;28;20275;-75
2023/09/17 09:57:43;;;;;;;4.43;4.10;;;28.80;1.00;;;;;;5011836;28;20256;-75
2023/09/17 10:00:18;;;;;;;5.35;3.70;;;28.90;1.00;;;;;;5011304;28;20187;-75
2023/09/17 10:02:46;;;;;;;3.95;3.58;;;29.00;1.00;;;;;;5012072;28;20196;-76
2023/09/17 10:05:16;;;;;;;4.50;3.97;;;29.10;1.00;;;;;;5012081;28;20226;-74
2023/09/17 10:07:42;;;;;;;4.03;3.63;;;29.30;1.00;;;;;;5011943;28;20183;-74
2023/09/17 10:10:10;;;;;;;4.25;3.95;;;29.40;1.00;;;;;;5012015;28;20664;-73
2023/09/17 10:12:36;;;;;;;4.20;3.90;;;29.60;1.00;;;;;;5008946;28;20208;-73
2023/09/17 10:15:02;;;;;;;4.03;3.72;;;29.60;1.00;;;;;;5012156;28;20187;-74
2023/09/17 10:17:28;;;;;;;12.27;3.85;;;29.70;1.00;;;;;;5011521;28;20211;-73
2023/09/17 10:19:54;;;;;;;4.78;4.38;;;29.50;1.00;;;;;;5011583;28;20191;-73
2023/09/17 10:22:23;;;;;;;4.95;4.28;;;29.30;1.00;;;;;;5011877;28;20196;-73
2023/09/17 10:24:50;;;;;;;4.90;4.40;;;29.20;1.00;;;;;;5013910;28;20177;-73
2023/09/17 10:27:17;;;;;;;5.80;3.40;;;29.10;1.00;;;;;;5017586;28;20567;-73
2023/09/17 10:29:47;;;;;;;4.55;3.83;;;29.10;1.00;;;;;;5011235;28;20620;-72
2023/09/17 10:32:13;;;;;;;4.28;3.85;;;29.10;1.00;;;;;;5016989;28;20203;-75
2023/09/17 10:34:40;;;;;;;4.43;4.13;;;29.00;1.00;;;;;;5014407;28;20188;-73
2023/09/17 10:37:06;;;;;;;6.15;4.82;;;28.70;1.00;;;;;;5011033;28;20917;-72
2023/09/17 10:39:33;;;;;;;4.40;4.00;;;28.50;1.00;;;;;;5011520;28;20195;-74
2023/09/17 10:42:02;;;;;;;4.63;3.97;;;28.30;1.00;;;;;;5011113;28;20211;-75
2023/09/17 10:44:29;;;;;;;7.20;4.30;;;28.30;1.00;;;;;;5011570;28;20184;-74
2023/09/17 10:46:59;;;;;;;5.80;4.07;;;28.40;1.00;;;;;;5011444;28;20180;-74
2023/09/17 10:49:26;;;;;;;4.65;4.25;;;28.50;1.00;;;;;;5010932;28;20234;-73
2023/09/17 10:51:53;;;;;;;5.22;4.82;;;28.50;1.00;;;;;;5019525;28;20203;-73
2023/09/17 10:54:19;;;;;;;4.68;4.32;;;28.60;1.00;;;;;;5011633;28;20195;-72
2023/09/17 10:56:45;;;;;;;4.95;4.55;;;28.70;1.00;;;;;;5011020;28;20222;-72
2023/09/17 10:59:14;;;;;;;4.82;4.50;;;28.90;1.00;;;;;;5011294;28;20545;-72
2023/09/17 11:01:41;;;;;;;5.22;4.82;;;28.80;1.00;;;;;;5011694;28;20234;-72
2023/09/17 11:04:16;;;;;;;4.40;4.10;;;29.00;1.00;;;;;;5011113;28;20215;-72
2023/09/17 11:06:44;;;;;;;4.53;4.20;;;29.00;1.00;;;;;;5011426;28;20179;-72
2023/09/17 11:09:11;;;;;;;4.50;4.20;;;29.20;1.00;;;;;;5010918;28;20655;-71
2023/09/17 11:11:37;;;;;;;5.47;4.97;;;29.10;1.00;;;;;;5011290;28;20784;-70
2023/09/17 11:14:04;;;;;;;4.78;4.38;;;29.00;1.00;;;;;;5010843;28;20246;-72
2023/09/17 11:16:31;;;;;;;4.78;4.38;;;29.00;1.00;;;;;;5011583;28;20211;-72
2023/09/17 11:19:23;;;;;;;3.78;3.47;;;28.80;1.00;;;;;;5010691;28;20198;-73
2023/09/17 11:22:01;;;;;;;4.60;4.30;;;28.90;1.00;;;;;;5008824;28;20549;-72
2023/09/17 11:24:27;;;;;;;5.18;4.78;;;29.00;1.00;;;;;;5011164;28;20183;-74
2023/09/17 11:26:57;;;;;;;5.07;4.72;;;28.90;1.00;;;;;;5011214;28;20196;-74
2023/09/17 11:29:46;;;;;;;4.63;4.32;;;28.70;1.00;;;;;;5010673;28;20192;-73
2023/09/17 11:32:19;;;;;;;5.22;4.40;;;28.60;1.00;;;;;;5006864;28;20707;-74
2023/09/17 11:34:44;;;;;;;6.88;4.25;;;28.50;1.00;;;;;;5010994;28;20608;-74
2023/09/17 11:37:14;;;;;;;4.35;4.05;;;28.70;1.00;;;;;;5010526;28;20210;-72
2023/09/17 11:39:52;;;;;;;5.30;4.90;;;29.00;1.00;;;;;;5010918;28;20177;-74
2023/09/17 11:42:21;;;;;;;4.68;4.28;;;29.20;1.00;;;;;;5017405;28;20194;-73
2023/09/17 11:44:48;;;;;;;5.43;4.65;;;29.30;1.00;;;;;;5015823;28;20172;-74
2023/09/17 11:47:15;;;;;;;4.25;3.90;;;29.10;1.00;;;;;;5014953;28;20191;-72
2023/09/17 11:49:40;;;;;;;4.15;3.75;;;29.20;1.00;;;;;;5014707;28;20187;-73
2023/09/17 11:52:10;;;;;;;3.85;3.30;;;29.50;1.00;;;;;;5014689;28;20196;-72
2023/09/17 11:54:45;;;;;;;3.30;3.00;;;29.90;1.00;;;;;;5014751;28;20266;-73
2023/09/17 11:57:10;;;;;;;3.78;3.47;;;29.90;1.00;;;;;;5015231;28;20211;-73
2023/09/17 11:59:39;;;;;;;3.90;3.30;;;29.80;1.00;;;;;;5014368;28;20314;-73
2023/09/17 12:02:05;;;;;;;3.50;3.20;;;29.60;1.00;;;;;;5005455;28;20376;-73
2023/09/17 12:04:35;;;;;;;3.90;3.55;;;29.60;1.00;;;;;;5014627;28;20216;-74
2023/09/17 12:07:07;;;;;;;3.55;3.30;;;29.70;1.00;;;;;;5014844;28;20191;-72
2023/09/17 12:09:52;;;;;;;5.57;3.60;;;30.10;1.00;;;;;;5014130;28;20176;-73
2023/09/17 12:12:19;;;;;;;5.80;3.38;;;30.30;1.00;;;;;;5014549;28;20238;-74
2023/09/17 12:14:48;;;;;;;3.10;2.90;;;30.60;1.00;;;;;;5014411;28;20184;-73
2023/09/17 12:17:16;;;;;;;3.28;2.97;;;30.90;11.10;;;;;;5014516;28;20212;-74
2023/09/17 12:19:42;;;;;;;3.50;3.20;;;30.80;93.10;;;;;;5014349;28;20666;-75
2023/09/17 12:22:09;;;;;;;4.47;3.42;;;31.00;58.00;;;;;;5014660;28;20746;-73
2023/09/17 12:24:37;;;;;;;3.50;3.20;;;31.40;76.70;;;;;;5012757;28;20263;-70
2023/09/17 12:27:24;;;;;;;3.08;2.83;;;31.50;88.70;;;;;;5012572;28;20207;-76
2023/09/17 12:29:52;;;;;;;6.63;3.75;;;31.50;97.90;;;;;;5013673;28;20231;-73
2023/09/17 12:32:22;;;;;;;4.13;3.33;;;31.60;99.90;;;;;;5014226;28;20200;-73
2023/09/17 12:34:50;;;;;;;3.25;3.05;;;31.80;99.90;;;;;;5013881;28;20259;-73
2023/09/17 12:37:17;;;;;;;3.38;3.15;;;31.90;99.90;;;;;;5013317;28;20218;-73